Time;durP1;ratioP1;P1;durP2;ratioP2;P2;SDS_P1;SDS_P2;PMS_P1;PMS_P2;Temp;Humidity;BMP_temperature;BMP_pressure;BME280_temperature;BME280_humidity;BME280_pressure;Samples;Min_cycle;Max_cycle;Signal;HPM_P1;HPM_P2
2023/09/12 00:02:09;;;;;;;;;6.75;6.75;;;;;27.10;46.90;100822.69;4960854;28;45548;-68
2023/09/12 00:04:35;;;;;;;;;5.75;5.75;;;;;27.08;46.97;100812.03;4962363;28;45426;-67
2023/09/12 00:07:01;;;;;;;;;5.00;5.00;;;;;27.04;47.06;100815.88;4959887;28;46334;-68
2023/09/12 00:09:27;;;;;;;;;7.00;6.00;;;;;26.80;47.11;100772.66;4962966;28;45322;-67
2023/09/12 00:11:54;;;;;;;;;5.00;5.00;;;;;26.88;47.09;100796.31;4959207;28;45398;-69
2023/09/12 00:14:20;;;;;;;;;3.25;3.25;;;;;26.96;47.11;100811.97;4962898;28;45392;-67
2023/09/12 00:16:46;;;;;;;;;6.50;5.00;;;;;26.95;47.43;100813.78;4961277;28;45533;-69
2023/09/12 00:19:12;;;;;;;;;6.50;5.75;;;;;26.93;47.71;100810.31;4960865;28;45452;-68
2023/09/12 00:21:38;;;;;;;;;4.50;4.25;;;;;26.70;47.65;100797.56;4964360;28;45567;-70
2023/09/12 00:24:03;;;;;;;;;5.25;5.25;;;;;26.66;48.26;100807.63;4964532;28;45584;-68
2023/09/12 00:26:30;;;;;;;;;7.00;7.00;;;;;26.68;48.07;100807.53;4965402;28;45563;-68
2023/09/12 00:28:56;;;;;;;;;4.75;4.75;;;;;26.68;47.70;100803.00;4962505;28;45394;-68
2023/09/12 00:31:22;;;;;;;;;7.00;5.50;;;;;26.68;48.11;100807.53;5006184;28;45520;-67
2023/09/12 00:33:47;;;;;;;;;5.00;5.00;;;;;26.69;48.09;100809.25;4963854;28;46248;-68
2023/09/12 00:36:13;;;;;;;;;5.50;5.50;;;;;26.72;48.00;100814.41;4975304;28;45364;-70
2023/09/12 00:38:38;;;;;;;;;8.50;5.00;;;;;26.73;47.71;100816.16;4975154;28;45345;-69
2023/09/12 00:41:04;;;;;;;;;8.00;5.25;;;;;26.54;48.12;100806.56;4975660;28;45440;-69
2023/09/12 00:43:29;;;;;;;;;4.50;3.75;;;;;26.39;48.52;100803.03;4975639;28;45342;-68
2023/09/12 00:45:55;;;;;;;;;6.00;5.25;;;;;26.38;48.74;100803.09;4973948;28;46030;-69
2023/09/12 00:48:22;;;;;;;;;6.25;5.75;;;;;26.48;48.46;100806.94;4989994;28;45473;-68
2023/09/12 00:50:49;;;;;;;;;4.75;4.75;;;;;26.52;48.41;100797.72;4975208;28;45402;-69
2023/09/12 00:53:15;;;;;;;;;6.00;6.00;;;;;26.52;48.72;100800.41;4975457;28;45924;-68
2023/09/12 00:55:59;;;;;;;;;10.75;6.25;;;;;26.50;48.98;100804.16;4974837;28;45570;-68
2023/09/12 00:58:25;;;;;;;;;11.00;8.25;;;;;26.45;48.85;100804.44;4974540;28;45366;-69
2023/09/12 01:00:51;;;;;;;;;7.00;5.25;;;;;26.35;49.10;100796.09;4974701;28;45445;-69
2023/09/12 01:03:17;;;;;;;;;5.50;5.50;;;;;26.37;48.66;100783.44;4982785;28;45417;-68
2023/09/12 01:05:44;;;;;;;;;7.50;6.25;;;;;26.49;48.67;100808.66;4974693;28;45451;-68
2023/09/12 01:08:10;;;;;;;;;7.00;4.75;;;;;26.50;49.01;100810.38;4975318;28;45733;-70
2023/09/12 01:10:36;;;;;;;;;6.25;5.50;;;;;26.45;48.77;100801.75;4974682;28;45452;-68
2023/09/12 01:13:02;;;;;;;;;7.75;6.50;;;;;26.44;48.57;100808.97;4976371;28;45429;-70
2023/09/12 01:15:27;;;;;;;;;6.50;5.75;;;;;26.40;49.06;100806.56;4972554;28;45442;-69
2023/09/12 01:17:53;;;;;;;;;6.75;6.75;;;;;26.41;49.12;100808.28;4957566;28;45373;-70
2023/09/12 01:20:30;;;;;;;;;6.00;6.00;;;;;26.34;49.16;100807.81;4975273;28;45302;-70
2023/09/12 01:23:23;;;;;;;;;10.25;6.50;;;;;26.13;49.91;100798.44;4979971;28;45421;-71
2023/09/12 01:26:06;;;;;;;;;9.00;7.00;;;;;25.95;50.56;100789.69;4976689;28;45533;-70
2023/09/12 01:28:34;;;;;;;;;10.75;8.00;;;;;25.85;50.62;100773.25;4975027;28;45370;-70
2023/09/12 01:31:02;;;;;;;;;5.25;4.75;;;;;25.94;50.55;100775.41;4974656;28;45498;-70
2023/09/12 01:33:28;;;;;;;;;6.25;5.50;;;;;26.00;50.67;100784.88;4960847;28;45531;-69
2023/09/12 01:35:54;;;;;;;;;6.25;6.25;;;;;25.92;50.33;100776.47;4976089;28;46258;-69
2023/09/12 01:38:21;;;;;;;;;8.75;7.00;;;;;25.99;50.07;100793.91;4975139;28;45321;-69
2023/09/12 01:40:53;;;;;;;;;6.75;6.75;;;;;25.89;50.67;100814.19;4974499;28;45293;-70
2023/09/12 01:43:22;;;;;;;;;7.75;6.00;;;;;25.76;50.86;100831.00;4973089;28;45464;-69
2023/09/12 01:45:54;;;;;;;;;8.25;8.25;;;;;25.57;51.87;100822.34;4973698;28;45416;-69
2023/09/12 01:48:23;;;;;;;;;8.00;8.00;;;;;25.32;52.12;100825.63;4974312;28;45313;-69
2023/09/12 01:50:49;;;;;;;;;7.50;7.50;;;;;25.26;52.84;100820.59;4974835;28;45461;-69
2023/09/12 01:53:15;;;;;;;;;12.00;8.75;;;;;25.32;52.21;100815.75;4974487;28;45484;-69
2023/09/12 01:55:46;;;;;;;;;12.25;8.00;;;;;25.08;52.85;100790.31;4973992;28;46135;-69
2023/09/12 01:58:13;;;;;;;;;10.75;8.75;;;;;25.15;53.52;100807.75;4972719;28;45373;-69
2023/09/12 02:00:39;;;;;;;;;13.00;9.00;;;;;25.13;52.92;100798.97;4974633;28;45327;-68
2023/09/12 02:03:05;;;;;;;;;11.25;9.50;;;;;25.09;52.83;100808.13;4989668;28;45410;-69
2023/09/12 02:05:31;;;;;;;;;8.50;7.00;;;;;25.04;53.25;100813.75;4972459;28;46499;-69
2023/09/12 02:07:57;;;;;;;;;9.75;8.75;;;;;24.93;53.32;100808.13;4973889;28;45948;-68
2023/09/12 02:10:22;;;;;;;;;12.75;8.50;;;;;25.04;53.24;100820.94;4974126;28;45491;-68
2023/09/12 02:12:49;;;;;;;;;12.33;9.67;;;;;24.98;52.92;100817.63;4973542;28;45488;-69
2023/09/12 02:15:14;;;;;;;;;8.75;8.50;;;;;25.02;53.29;100817.47;4969950;28;46959;-68
2023/09/12 02:17:40;;;;;;;;;10.67;9.00;;;;;24.84;54.14;100805.97;4968083;28;45406;-68
2023/09/12 02:20:09;;;;;;;;;7.75;7.25;;;;;24.81;54.05;100811.53;4974555;28;45307;-69
2023/09/12 02:22:35;;;;;;;;;7.50;6.50;;;;;24.71;54.70;100811.19;4974594;28;45652;-68
2023/09/12 02:25:00;;;;;;;;;12.00;9.00;;;;;24.81;54.17;100798.13;4973486;28;46121;-69
2023/09/12 02:27:26;;;;;;;;;7.25;5.75;;;;;24.76;54.56;100812.63;4973456;28;45398;-67
2023/09/12 02:29:51;;;;;;;;;11.75;9.00;;;;;24.79;54.51;100806.25;4972064;28;45395;-68
2023/09/12 02:32:17;;;;;;;;;11.75;7.50;;;;;24.84;54.57;100797.94;4972890;28;45589;-68
2023/09/12 02:34:42;;;;;;;;;9.25;7.00;;;;;24.92;54.29;100817.16;4974052;28;45387;-68
2023/09/12 02:37:08;;;;;;;;;8.00;6.50;;;;;24.86;53.50;100780.84;4973643;28;45544;-68
2023/09/12 02:39:33;;;;;;;;;6.25;6.25;;;;;25.10;53.41;100799.13;4973736;28;45452;-69
2023/09/12 02:41:59;;;;;;;;;11.00;8.00;;;;;25.10;53.59;100801.81;4973507;28;45320;-67
2023/09/12 02:44:25;;;;;;;;;7.00;7.00;;;;;25.22;53.22;100809.16;4953998;28;46354;-67
2023/09/12 02:46:51;;;;;;;;;11.75;9.75;;;;;25.26;53.64;100816.09;4962215;28;45475;-67
2023/09/12 02:49:16;;;;;;;;;8.75;8.25;;;;;25.29;53.24;100810.53;4959525;28;45626;-67
2023/09/12 02:51:42;;;;;;;;;9.75;9.75;;;;;25.36;53.23;100806.53;4964518;28;45451;-68
2023/09/12 02:54:08;;;;;;;;;8.00;8.00;;;;;25.40;52.97;100799.19;4959392;28;45460;-67
2023/09/12 02:56:33;;;;;;;;;8.00;8.00;;;;;25.34;52.85;100797.75;4962109;28;45339;-67
2023/09/12 02:58:59;;;;;;;;;8.25;6.50;;;;;25.37;52.88;100794.88;4960774;28;45281;-68
2023/09/12 03:01:27;;;;;;;;;8.50;8.50;;;;;25.49;52.34;100808.53;4951899;28;45350;-67
2023/09/12 03:03:53;;;;;;;;;7.00;7.00;;;;;25.52;52.32;100798.47;4970580;28;46357;-67
2023/09/12 03:06:19;;;;;;;;;12.50;10.50;;;;;25.57;53.07;100798.19;4974660;28;45779;-68
2023/09/12 03:08:44;;;;;;;;;8.00;8.00;;;;;25.59;52.49;100793.59;4961851;28;45549;-67
2023/09/12 03:11:10;;;;;;;;;5.75;5.75;;;;;25.63;52.68;100795.16;4981042;28;45530;-67
2023/09/12 03:13:45;;;;;;;;;9.00;7.50;;;;;25.64;52.40;100794.19;4974647;28;47787;-67
2023/09/12 03:16:12;;;;;;;;;10.25;8.25;;;;;25.63;52.81;100805.00;4967407;28;45423;-67
2023/09/12 03:18:37;;;;;;;;;8.50;8.00;;;;;25.65;52.42;100800.41;4976183;28;45460;-68
2023/09/12 03:21:03;;;;;;;;;10.00;8.25;;;;;25.64;52.68;100804.06;4976565;28;45389;-67
2023/09/12 03:23:28;;;;;;;;;10.25;8.25;;;;;25.60;52.63;100800.69;4975493;28;46402;-67
2023/09/12 03:25:54;;;;;;;;;11.25;7.00;;;;;25.55;52.66;100786.69;4975820;28;45612;-67
2023/09/12 03:28:20;;;;;;;;;5.00;5.00;;;;;25.64;52.53;100812.97;4975687;28;45429;-67
2023/09/12 03:30:46;;;;;;;;;6.75;6.75;;;;;25.63;52.51;100805.00;4974749;28;45594;-67
2023/09/12 03:33:12;;;;;;;;;9.25;8.50;;;;;25.69;52.11;100807.31;4976142;28;46323;-66
2023/09/12 03:35:37;;;;;;;;;10.50;8.75;;;;;25.73;52.52;100828.50;4975851;28;45343;-66
2023/09/12 03:38:03;;;;;;;;;10.00;8.00;;;;;25.72;52.13;100824.13;4975772;28;45335;-66
2023/09/12 03:40:34;;;;;;;;;9.25;7.00;;;;;25.74;52.60;100814.13;4974491;28;45699;-68
2023/09/12 03:43:00;;;;;;;;;10.00;8.75;;;;;25.70;52.35;100819.78;4964004;28;45375;-66
2023/09/12 03:45:25;;;;;;;;;9.25;7.25;;;;;25.71;52.24;100825.06;4973762;28;45412;-68
2023/09/12 03:47:52;;;;;;;;;9.50;8.25;;;;;25.73;52.34;100831.19;4976357;28;45403;-67
2023/09/12 03:50:17;;;;;;;;;10.00;8.00;;;;;25.72;52.32;100832.16;4975312;28;45418;-67
2023/09/12 03:52:43;;;;;;;;;9.75;9.75;;;;;25.72;52.45;100829.47;4975966;28;45847;-67
2023/09/12 03:55:09;;;;;;;;;9.25;8.25;;;;;25.67;51.96;100820.81;4974397;28;45529;-67
2023/09/12 03:57:34;;;;;;;;;10.50;9.25;;;;;25.42;52.54;100829.47;4974652;28;45390;-68
2023/09/12 04:00:00;;;;;;;;;9.25;9.25;;;;;25.26;53.03;100837.53;4976068;28;45551;-67
2023/09/12 04:02:26;;;;;;;;;11.25;10.75;;;;;24.97;54.01;100821.28;4975509;28;45496;-67
2023/09/12 04:04:51;;;;;;;;;9.75;9.25;;;;;25.05;53.70;100839.59;4966275;28;45344;-68
2023/09/12 04:07:17;;;;;;;;;8.50;7.50;;;;;25.12;53.75;100829.38;4971308;28;45386;-68
2023/09/12 04:09:43;;;;;;;;;8.50;7.00;;;;;25.17;53.12;100813.91;4976314;28;45410;-67
2023/09/12 04:12:09;;;;;;;;;11.75;9.00;;;;;25.24;53.07;100827.84;4975480;28;45405;-66
2023/09/12 04:14:38;;;;;;;;;7.25;7.25;;;;;25.26;52.89;100813.41;4976280;28;45864;-67
2023/09/12 04:17:04;;;;;;;;;10.75;8.00;;;;;25.19;53.44;100793.28;4981699;28;45382;-67
2023/09/12 04:19:31;;;;;;;;;13.00;9.25;;;;;25.25;53.11;100809.00;4975301;28;45490;-68
2023/09/12 04:21:57;;;;;;;;;9.75;9.75;;;;;25.29;53.57;100821.25;4974982;28;46349;-68
2023/09/12 04:24:28;;;;;;;;;13.75;10.75;;;;;25.31;53.59;100823.88;4975529;28;45579;-68
2023/09/12 04:26:54;;;;;;;;;12.00;8.75;;;;;25.31;53.53;100831.91;4975482;28;45563;-68
2023/09/12 04:29:20;;;;;;;;;11.00;9.00;;;;;25.26;52.99;100810.72;4975819;28;45444;-68
2023/09/12 04:31:50;;;;;;;;;11.50;10.50;;;;;25.41;52.92;100834.91;4961263;28;47633;-68
2023/09/12 04:34:19;;;;;;;;;9.00;8.75;;;;;25.31;53.38;100832.75;4975965;27;45238;-69
2023/09/12 04:36:45;;;;;;;;;9.75;9.25;;;;;25.18;53.77;100813.00;4976025;28;45533;-68
2023/09/12 04:39:10;;;;;;;;;5.50;5.50;;;;;25.33;53.40;100844.28;4990761;27;45439;-69
2023/09/12 04:41:36;;;;;;;;;12.75;11.00;;;;;25.34;53.24;100845.13;4974939;28;45475;-69
2023/09/12 04:44:04;;;;;;;;;11.67;11.67;;;;;25.22;53.52;100844.00;4975259;28;45509;-68
2023/09/12 04:46:31;;;;;;;;;11.25;9.75;;;;;25.15;53.53;100850.66;4975059;28;45333;-69
2023/09/12 04:48:56;;;;;;;;;11.00;11.00;;;;;24.95;53.88;100817.81;4976389;28;45419;-68
2023/09/12 04:51:22;;;;;;;;;14.00;11.67;;;;;25.11;53.66;100849.13;4975214;28;45515;-68
2023/09/12 04:53:51;;;;;;;;;13.25;11.25;;;;;25.08;53.94;100844.81;4975896;28;45492;-67
2023/09/12 04:56:17;;;;;;;;;11.75;9.25;;;;;25.02;53.94;100820.16;4975443;28;45362;-67
2023/09/12 04:58:42;;;;;;;;;14.67;11.33;;;;;25.21;53.28;100847.66;4975706;28;45439;-69
2023/09/12 05:01:09;;;;;;;;;12.25;10.50;;;;;25.07;53.95;100843.06;4976061;28;46367;-69
2023/09/12 05:03:35;;;;;;;;;13.67;11.67;;;;;25.12;53.89;100842.78;4975911;28;45461;-68
2023/09/12 05:06:00;;;;;;;;;17.33;10.33;;;;;25.17;53.97;100838.91;4960275;28;45521;-68
2023/09/12 05:08:29;;;;;;;;;14.67;13.00;;;;;25.15;53.57;100829.22;4959017;28;45369;-67
2023/09/12 05:10:55;;;;;;;;;14.00;10.75;;;;;25.17;53.76;100832.66;4959710;28;45568;-67
2023/09/12 05:13:20;;;;;;;;;13.67;12.33;;;;;25.20;53.66;100837.03;4974620;28;45527;-67
2023/09/12 05:15:47;;;;;;;;;13.00;12.33;;;;;25.19;53.43;100841.53;4968096;28;45846;-67
2023/09/12 05:18:13;;;;;;;;;18.00;11.67;;;;;25.18;53.83;100851.38;4966785;28;45801;-66
2023/09/12 05:20:39;;;;;;;;;9.33;9.33;;;;;25.14;53.58;100851.63;4964570;28;46114;-67
2023/09/12 05:23:09;;;;;;;;;19.00;15.33;;;;;25.16;53.75;100863.13;4956863;28;45493;-67
2023/09/12 05:25:35;;;;;;;;;14.33;12.33;;;;;25.12;53.90;100862.41;4962373;28;45444;-66
2023/09/12 05:28:01;;;;;;;;;13.33;11.33;;;;;25.02;53.68;100847.81;4960961;28;45480;-68
2023/09/12 05:30:26;;;;;;;;;12.67;12.33;;;;;25.02;53.62;100852.31;4955503;28;46154;-68
2023/09/12 05:32:52;;;;;;;;;13.00;12.67;;;;;25.06;53.78;100845.84;4956945;28;45386;-67
2023/09/12 05:35:18;;;;;;;;;15.00;12.67;;;;;25.09;54.10;100854.56;4958817;28;45386;-68
2023/09/12 05:37:43;;;;;;;;;12.00;12.00;;;;;25.07;53.98;100869.00;4957380;28;45401;-66
2023/09/12 05:40:10;;;;;;;;;13.50;12.50;;;;;24.87;54.19;100835.28;4973768;28;46390;-67
2023/09/12 05:42:36;;;;;;;;;13.67;12.67;;;;;25.05;54.24;100866.38;4956069;28;45352;-66
2023/09/12 05:45:02;;;;;;;;;11.67;10.00;;;;;24.96;54.38;100858.88;4956918;28;45655;-67
2023/09/12 05:47:27;;;;;;;;;18.00;12.33;;;;;24.93;54.14;100843.81;4953545;28;45340;-68
2023/09/12 05:49:53;;;;;;;;;17.33;13.33;;;;;24.98;54.15;100847.09;4959899;28;46128;-67
2023/09/12 05:52:19;;;;;;;;;14.00;11.33;;;;;25.04;53.96;100837.03;4960684;28;45389;-67
2023/09/12 05:54:44;;;;;;;;;14.00;12.67;;;;;25.06;53.84;100825.25;4961571;28;45351;-70
2023/09/12 05:57:11;;;;;;;;;15.67;14.00;;;;;25.16;53.66;100836.31;4971705;27;45610;-67
2023/09/12 05:59:39;;;;;;;;;22.67;16.00;;;;;25.26;53.48;100845.56;4953872;28;46996;-68
2023/09/12 06:02:06;;;;;;;;;15.33;12.00;;;;;25.19;52.83;100817.41;4970043;28;45367;-69
2023/09/12 06:04:34;;;;;;;;;16.00;15.00;;;;;25.55;52.99;100870.69;4955845;28;45494;-67
2023/09/12 06:07:04;;;;;;;;;12.00;12.00;;;;;25.53;52.82;100863.69;4956832;28;45338;-67
2023/09/12 06:09:30;;;;;;;;;15.00;12.67;;;;;25.51;52.86;100863.78;4946489;28;46719;-67
2023/09/12 06:11:59;;;;;;;;;15.67;14.00;;;;;25.42;53.16;100855.44;4968960;28;45571;-68
2023/09/12 06:14:25;;;;;;;;;16.33;12.33;;;;;25.70;52.42;100879.66;4974076;28;45440;-68
2023/09/12 06:16:51;;;;;;;;;13.67;11.33;;;;;25.81;52.13;100874.50;4965603;28;45304;-66
2023/09/12 06:19:19;;;;;;;;;13.75;11.75;;;;;25.84;51.93;100886.03;4961028;28;46539;-67
2023/09/12 06:22:04;;;;;;;;;13.00;11.75;;;;;25.80;51.91;100874.63;4960788;28;45576;-67
2023/09/12 06:24:29;;;;;;;;;23.67;17.67;;;;;25.69;51.85;100867.19;4959716;28;45378;-68
2023/09/12 06:26:55;;;;;;;;;16.67;14.00;;;;;25.85;51.68;100891.31;4955058;28;45560;-66
2023/09/12 06:29:21;;;;;;;;;12.25;10.25;;;;;25.83;51.88;100892.34;4955301;28;45222;-67
2023/09/12 06:31:46;;;;;;;;;18.00;13.67;;;;;25.69;52.23;100890.47;4958918;28;45453;-68
2023/09/12 06:34:12;;;;;;;;;13.25;12.75;;;;;25.61;52.29;100888.25;4956650;28;45382;-66
2023/09/12 06:36:39;;;;;;;;;20.00;16.00;;;;;25.58;52.28;100880.41;4960686;28;45351;-68
2023/09/12 06:39:05;;;;;;;;;18.33;17.00;;;;;25.51;52.27;100877.22;4958446;28;46079;-68
2023/09/12 06:41:31;;;;;;;;;18.00;16.33;;;;;25.58;52.31;100888.44;4964026;28;45511;-66
2023/09/12 06:44:07;;;;;;;;;18.67;17.00;;;;;25.61;52.57;100880.22;4962969;28;45535;-67
2023/09/12 06:46:37;;;;;;;;;18.00;17.33;;;;;25.68;52.57;100876.22;4957471;28;45300;-66
2023/09/12 06:49:03;;;;;;;;;17.33;16.00;;;;;25.75;52.37;100874.03;4973631;28;45363;-67
2023/09/12 06:51:29;;;;;;;;;20.67;17.33;;;;;25.78;51.88;100874.69;4975172;28;45474;-68
2023/09/12 06:53:55;;;;;;;;;19.33;16.33;;;;;25.86;51.79;100876.06;4970075;28;45533;-68
2023/09/12 06:56:21;;;;;;;;;19.00;16.67;;;;;25.90;51.71;100864.22;4975817;28;45567;-68
2023/09/12 06:58:47;;;;;;;;;17.67;16.00;;;;;25.98;51.63;100867.31;4973538;27;46027;-68
2023/09/12 07:01:13;;;;;;;;;23.00;19.33;;;;;26.12;50.95;100877.22;4974347;28;45184;-67
2023/09/12 07:03:39;;;;;;;;;19.33;16.33;;;;;26.20;50.79;100867.75;4975738;28;45299;-67
2023/09/12 07:06:05;;;;;;;;;23.33;19.00;;;;;26.27;50.57;100860.19;4976226;28;45598;-69
2023/09/12 07:08:31;;;;;;;;;21.67;15.33;;;;;26.28;50.87;100879.81;4964339;28;45898;-67
2023/09/12 07:10:58;;;;;;;;;19.00;19.00;;;;;26.25;50.47;100874.66;4959215;28;45556;-67
2023/09/12 07:13:24;;;;;;;;;22.33;20.33;;;;;26.12;51.13;100863.78;4962751;28;45388;-68
2023/09/12 07:15:50;;;;;;;;;19.00;17.33;;;;;26.18;51.08;100874.16;4957427;28;45413;-69
2023/09/12 07:18:16;;;;;;;;;18.67;16.67;;;;;26.18;50.93;100885.75;4956033;28;45485;-67
2023/09/12 07:20:42;;;;;;;;;19.33;18.00;;;;;26.07;51.13;100880.16;4957008;28;45476;-68
2023/09/12 07:23:08;;;;;;;;;17.67;17.00;;;;;26.11;51.19;100892.47;4957309;28;45426;-68
2023/09/12 07:25:41;;;;;;;;;20.00;18.00;;;;;26.07;50.87;100893.59;4956822;28;45208;-68
2023/09/12 07:28:09;;;;;;;;;17.00;14.67;;;;;26.05;51.37;100889.28;4956635;28;46178;-66
2023/09/12 07:30:36;;;;;;;;;19.00;16.33;;;;;26.05;51.18;100897.31;4956652;28;45414;-67
2023/09/12 07:33:04;;;;;;;;;17.67;16.67;;;;;26.05;51.46;100900.88;4958024;28;45903;-68
2023/09/12 07:35:30;;;;;;;;;15.67;14.00;;;;;26.04;51.42;100904.53;4960595;28;45494;-67
2023/09/12 07:38:00;;;;;;;;;19.00;15.33;;;;;26.04;51.99;100909.03;4958608;28;45585;-68
2023/09/12 07:40:26;;;;;;;;;17.00;15.33;;;;;25.84;51.94;100877.97;4968032;28;45351;-68
2023/09/12 07:42:52;;;;;;;;;15.67;15.00;;;;;25.85;51.96;100882.41;4985282;28;45632;-68
2023/09/12 07:45:18;;;;;;;;;17.00;14.67;;;;;25.91;52.54;100893.66;4956760;28;46014;-68
2023/09/12 07:47:44;;;;;;;;;15.00;12.67;;;;;26.01;51.49;100904.72;4970855;28;45560;-68
2023/09/12 07:50:09;;;;;;;;;13.00;13.00;;;;;26.00;51.47;100902.97;4966761;28;45598;-68
2023/09/12 07:52:35;;;;;;;;;15.00;13.50;;;;;25.98;51.78;100903.09;4959487;28;45443;-68
2023/09/12 07:55:02;;;;;;;;;17.00;11.00;;;;;25.97;51.38;100890.59;4958723;28;45367;-68
2023/09/12 07:57:29;;;;;;;;;19.00;15.33;;;;;25.95;52.26;100886.28;4957527;28;45507;-68
2023/09/12 07:59:55;;;;;;;;;17.33;11.33;;;;;26.00;51.51;100900.28;4958422;28;45402;-66
2023/09/12 08:02:20;;;;;;;;;15.33;13.00;;;;;25.96;51.72;100898.72;4957569;28;45413;-69
2023/09/12 08:04:46;;;;;;;;;18.00;14.00;;;;;25.89;51.78;100894.69;4959174;28;45474;-68
2023/09/12 08:07:16;;;;;;;;;16.33;14.67;;;;;25.78;51.57;100881.91;4957190;28;46053;-68
2023/09/12 08:09:53;;;;;;;;;14.67;14.00;;;;;25.65;51.69;100854.06;4957784;28;46336;-71
2023/09/12 08:12:23;;;;;;;;;18.25;14.00;;;;;25.87;51.71;100896.63;4918737;28;45566;-71
2023/09/12 08:14:48;;;;;;;;;14.33;13.33;;;;;25.86;51.80;100908.25;4954434;28;45905;-69
2023/09/12 08:17:14;;;;;;;;;15.33;12.67;;;;;25.86;51.66;100916.31;4955248;28;45889;-68
2023/09/12 08:19:44;;;;;;;;;11.50;10.50;;;;;25.79;51.89;100899.69;4995137;27;47438;-68
2023/09/12 08:22:12;;;;;;;;;13.50;12.75;;;;;25.64;51.27;100866.59;4960603;28;45679;-67
2023/09/12 08:24:39;;;;;;;;;12.33;11.67;;;;;25.97;51.25;100924.63;4960448;28;45684;-72
2023/09/12 08:27:05;;;;;;;;;11.75;10.00;;;;;25.84;51.63;100903.00;4962887;28;45575;-70
2023/09/12 08:29:32;;;;;;;;;10.75;10.50;;;;;25.99;51.46;100911.97;4968379;28;45589;-65
2023/09/12 08:31:58;;;;;;;;;13.25;11.75;;;;;26.04;50.88;100915.25;4962805;28;45381;-70
2023/09/12 08:34:24;;;;;;;;;16.67;15.00;;;;;25.91;51.38;100904.41;4966513;28;45327;-67
2023/09/12 08:36:51;;;;;;;;;13.75;12.00;;;;;25.85;51.40;100906.53;4962877;28;45682;-67
2023/09/12 08:39:22;;;;;;;;;15.00;13.00;;;;;25.62;51.31;100863.16;4942507;27;45609;-68
2023/09/12 08:41:48;;;;;;;;;16.25;12.75;;;;;25.91;51.37;100920.50;4964378;28;45511;-69
2023/09/12 08:44:15;;;;;;;;;13.75;12.00;;;;;25.62;51.53;100892.66;4963335;28;45579;-69
2023/09/12 08:46:42;;;;;;;;;15.25;13.25;;;;;25.77;51.22;100928.47;4971033;28;45468;-69
2023/09/12 08:49:09;;;;;;;;;12.75;10.50;;;;;25.70;51.50;100925.28;4971615;28;45413;-69
2023/09/12 08:51:39;;;;;;;;;14.25;13.25;;;;;25.62;51.89;100924.84;4972314;28;45425;-70
2023/09/12 08:54:06;;;;;;;;;12.75;11.25;;;;;25.57;51.90;100919.75;4972835;28;45477;-68
2023/09/12 08:56:34;;;;;;;;;9.75;9.75;;;;;25.50;52.09;100915.69;4974174;28;45467;-69
2023/09/12 08:59:01;;;;;;;;;14.25;12.00;;;;;25.56;51.66;100922.53;4972930;28;45338;-68
2023/09/12 09:01:30;;;;;;;;;11.25;9.50;;;;;25.58;51.63;100928.66;4975202;28;45384;-69
2023/09/12 09:03:57;;;;;;;;;10.00;10.00;;;;;25.53;51.72;100928.03;4970976;28;45334;-70
2023/09/12 09:06:24;;;;;;;;;9.00;8.25;;;;;25.44;51.87;100929.47;4971342;28;45413;-68
2023/09/12 09:08:53;;;;;;;;;13.25;11.00;;;;;25.24;52.35;100919.00;4971827;28;45441;-67
2023/09/12 09:11:18;;;;;;;;;11.75;10.25;;;;;25.19;52.45;100919.25;4953978;28;45446;-67
2023/09/12 09:13:44;;;;;;;;;15.67;14.33;;;;;25.15;52.69;100931.94;4973008;28;45568;-68
2023/09/12 09:16:18;;;;;;;;;14.33;12.00;;;;;24.92;52.91;100919.81;4965193;28;45528;-68
2023/09/12 09:19:05;;;;;;;;;10.67;10.67;;;;;24.84;53.21;100927.38;4972857;28;45750;-68
2023/09/12 09:21:32;;;;;;;;;10.50;10.25;;;;;24.71;53.82;100904.91;4974419;28;45441;-69
2023/09/12 09:24:00;;;;;;;;;13.33;11.00;;;;;24.87;53.59;100923.72;4989030;27;45492;-69
2023/09/12 09:26:43;;;;;;;;;17.33;13.00;;;;;24.75;53.87;100917.19;4972091;28;45509;-69
2023/09/12 09:29:14;;;;;;;;;11.00;11.00;;;;;24.78;53.98;100921.53;4974459;28;45526;-69
2023/09/12 09:31:44;;;;;;;;;13.00;11.00;;;;;24.74;54.21;100915.44;4973779;28;45453;-69
2023/09/12 09:34:16;;;;;;;;;13.00;11.25;;;;;24.71;53.95;100905.78;4974191;28;45443;-70
2023/09/12 09:36:49;;;;;;;;;13.50;12.50;;;;;24.77;53.54;100901.88;4973685;28;45488;-69
2023/09/12 09:39:20;;;;;;;;;13.33;13.33;;;;;24.68;53.75;100903.28;4972195;28;45440;-69
2023/09/12 09:41:50;;;;;;;;;14.33;13.00;;;;;24.65;54.01;100911.44;4989151;28;45688;-69
2023/09/12 09:44:17;;;;;;;;;11.25;10.25;;;;;24.68;53.89;100929.19;4974031;28;45458;-69
2023/09/12 09:46:46;;;;;;;;;18.00;13.33;;;;;24.63;55.46;100933.91;4973407;28;45490;-68
2023/09/12 09:49:17;;;;;;;;;17.33;15.67;;;;;24.43;58.11;100943.84;4974018;28;45485;-68
2023/09/12 09:51:43;;;;;;;;;16.00;14.00;;;;;24.26;58.41;100942.03;4988693;28;45496;-69
2023/09/12 09:54:12;;;;;;;;;21.33;15.33;;;;;24.03;60.12;100945.03;4973619;28;45515;-69
2023/09/12 09:56:49;;;;;;;;;18.00;14.33;;;;;23.90;60.48;100942.13;4974003;28;46156;-69
2023/09/12 09:59:16;;;;;;;;;15.33;13.00;;;;;23.79;60.60;100952.50;4973255;28;45409;-68
2023/09/12 10:01:43;;;;;;;;;18.33;17.00;;;;;23.69;60.30;100974.31;4975420;28;45467;-69
2023/09/12 10:04:09;;;;;;;;;13.67;10.67;;;;;23.68;60.96;100975.25;4949735;28;45438;-68
2023/09/12 10:06:39;;;;;;;;;15.33;15.00;;;;;23.76;60.02;100964.22;4965994;28;46254;-67
2023/09/12 10:09:14;;;;;;;;;17.67;13.33;;;;;23.90;60.75;100972.41;4965712;28;45367;-71
2023/09/12 10:11:42;;;;;;;;;17.33;14.67;;;;;23.97;60.70;100967.63;4968620;28;45532;-73
2023/09/12 10:14:08;;;;;;;;;16.67;13.00;;;;;24.15;60.08;100986.34;4964266;28;45417;-69
2023/09/12 10:16:47;;;;;;;;;15.67;14.00;;;;;24.01;59.82;100949.59;4944119;28;46761;-68
2023/09/12 10:19:23;;;;;;;;;11.67;11.67;;;;;24.36;60.13;101005.81;4961241;28;45410;-69
2023/09/12 10:22:09;;;;;;;;;16.00;15.00;;;;;24.37;59.86;101005.75;4962088;28;45466;-67
2023/09/12 10:24:35;;;;;;;;;18.33;16.00;;;;;24.44;59.69;101007.16;4965164;28;45344;-70
2023/09/12 10:27:03;;;;;;;;;17.00;17.00;;;;;24.24;60.00;100972.50;4961361;28;45391;-68
2023/09/12 10:29:31;;;;;;;;;21.67;18.00;;;;;24.41;60.25;101003.75;4964254;28;45418;-68
2023/09/12 10:31:56;;;;;;;;;17.67;17.33;;;;;24.42;61.23;101000.16;4961332;28;45673;-69
2023/09/12 10:34:25;;;;;;;;;40.00;32.00;;;;;24.26;61.80;100981.34;4958468;28;45878;-68
2023/09/12 10:36:52;;;;;;;;;28.00;25.67;;;;;24.32;61.51;100987.25;4957963;28;47136;-69
2023/09/12 10:39:20;;;;;;;;;38.67;31.67;;;;;24.39;61.78;100982.41;4958036;28;45362;-68
2023/09/12 10:41:50;;;;;;;;;386.00;327.50;;;;;24.41;60.94;100971.63;4959312;28;45418;-68
2023/09/12 10:44:29;;;;;;;;;153.00;141.75;;;;;24.53;60.54;100976.38;4958642;28;45453;-68
2023/09/12 10:46:55;;;;;;;;;65.00;48.75;;;;;24.56;60.97;100962.84;4959342;28;46969;-67
2023/09/12 10:49:25;;;;;;;;;48.00;37.00;;;;;24.63;60.54;100968.72;4956424;28;45344;-68
2023/09/12 10:51:58;;;;;;;;;25.00;22.00;;;;;24.70;60.67;100967.44;4959457;28;45571;-68
2023/09/12 10:54:38;;;;;;;;;18.00;15.00;;;;;24.73;60.32;100965.47;4958272;28;45305;-67
2023/09/12 10:57:13;;;;;;;;;17.67;16.33;;;;;24.79;59.02;100961.59;4958805;28;46113;-68
2023/09/12 11:00:04;;;;;;;;;12.67;12.67;;;;;24.85;60.22;100961.28;4957634;28;45464;-68
2023/09/12 11:02:35;;;;;;;;;13.33;13.00;;;;;24.91;60.01;100957.41;4959311;28;45345;-67
2023/09/12 11:05:06;;;;;;;;;13.33;11.00;;;;;24.93;59.84;100952.81;4958234;28;45354;-68
2023/09/12 11:07:32;;;;;;;;;13.67;10.33;;;;;24.95;59.30;100957.16;4959455;28;45259;-68
2023/09/12 11:10:14;;;;;;;;;12.00;11.67;;;;;24.93;59.91;100959.03;4959173;28;45404;-69
2023/09/12 11:12:40;;;;;;;;;10.25;9.25;;;;;24.83;59.41;100943.56;4971791;28;45857;-67
2023/09/12 11:15:06;;;;;;;;;11.00;11.00;;;;;24.86;59.69;100954.97;4973713;28;45350;-70
2023/09/12 11:17:38;;;;;;;;;13.00;12.33;;;;;24.95;59.10;100956.28;4951976;28;46563;-66